sensor_id;sensor_type;location;lat;lon;timestamp;P1;durP1;ratioP1;P2;durP2;ratioP2
15833;SDS011;8017;50.812;4.934;2022-08-19T00:00:52;30.83;;;27.90;;
15833;SDS011;8017;50.812;4.934;2022-08-19T00:03:54;32.60;;;29.63;;
15833;SDS011;8017;50.812;4.934;2022-08-19T00:06:57;32.53;;;29.73;;
15833;SDS011;8017;50.812;4.934;2022-08-19T00:10:00;35.37;;;32.10;;
15833;SDS011;8017;50.812;4.934;2022-08-19T00:13:02;35.03;;;31.93;;
15833;SDS011;8017;50.812;4.934;2022-08-19T00:16:04;38.00;;;34.50;;
15833;SDS011;8017;50.812;4.934;2022-08-19T00:19:07;38.20;;;34.73;;
15833;SDS011;8017;50.812;4.934;2022-08-19T00:22:10;37.30;;;33.90;;
15833;SDS011;8017;50.812;4.934;2022-08-19T00:25:13;38.23;;;34.83;;
15833;SDS011;8017;50.812;4.934;2022-08-19T00:28:15;37.83;;;34.47;;
15833;SDS011;8017;50.812;4.934;2022-08-19T00:31:17;38.87;;;35.13;;
15833;SDS011;8017;50.812;4.934;2022-08-19T00:34:19;37.57;;;34.17;;
15833;SDS011;8017;50.812;4.934;2022-08-19T00:37:23;38.13;;;34.47;;
15833;SDS011;8017;50.812;4.934;2022-08-19T00:40:26;37.03;;;33.43;;
15833;SDS011;8017;50.812;4.934;2022-08-19T00:43:30;37.17;;;33.67;;
15833;SDS011;8017;50.812;4.934;2022-08-19T00:46:33;36.53;;;33.03;;
15833;SDS011;8017;50.812;4.934;2022-08-19T00:49:39;37.77;;;34.17;;
15833;SDS011;8017;50.812;4.934;2022-08-19T00:52:49;37.00;;;33.60;;
15833;SDS011;8017;50.812;4.934;2022-08-19T00:55:53;38.30;;;34.77;;
15833;SDS011;8017;50.812;4.934;2022-08-19T00:58:59;38.93;;;35.27;;
15833;SDS011;8017;50.812;4.934;2022-08-19T01:02:02;39.50;;;35.80;;
15833;SDS011;8017;50.812;4.934;2022-08-19T01:05:05;37.90;;;34.40;;
15833;SDS011;8017;50.812;4.934;2022-08-19T01:08:11;39.63;;;35.73;;
15833;SDS011;8017;50.812;4.934;2022-08-19T01:11:16;38.27;;;34.40;;
15833;SDS011;8017;50.812;4.934;2022-08-19T01:14:18;36.50;;;32.60;;
15833;SDS011;8017;50.812;4.934;2022-08-19T01:17:20;35.93;;;32.43;;
15833;SDS011;8017;50.812;4.934;2022-08-19T01:20:23;37.20;;;33.50;;
15833;SDS011;8017;50.812;4.934;2022-08-19T01:23:27;37.80;;;33.97;;
15833;SDS011;8017;50.812;4.934;2022-08-19T01:26:43;35.93;;;32.27;;
15833;SDS011;8017;50.812;4.934;2022-08-19T01:29:46;37.93;;;34.03;;
15833;SDS011;8017;50.812;4.934;2022-08-19T01:32:48;36.43;;;32.73;;
15833;SDS011;8017;50.812;4.934;2022-08-19T01:35:50;40.07;;;35.77;;
15833;SDS011;8017;50.812;4.934;2022-08-19T01:38:54;38.87;;;34.77;;
15833;SDS011;8017;50.812;4.934;2022-08-19T01:41:56;42.30;;;37.70;;
15833;SDS011;8017;50.812;4.934;2022-08-19T01:44:58;42.67;;;37.70;;
15833;SDS011;8017;50.812;4.934;2022-08-19T01:48:00;43.07;;;37.63;;
15833;SDS011;8017;50.812;4.934;2022-08-19T01:51:03;42.67;;;37.83;;
15833;SDS011;8017;50.812;4.934;2022-08-19T01:54:07;46.20;;;41.03;;
15833;SDS011;8017;50.812;4.934;2022-08-19T01:57:10;46.43;;;39.90;;
15833;SDS011;8017;50.812;4.934;2022-08-19T02:00:14;50.60;;;41.23;;
15833;SDS011;8017;50.812;4.934;2022-08-19T02:03:19;50.27;;;41.50;;
15833;SDS011;8017;50.812;4.934;2022-08-19T02:06:21;45.07;;;38.47;;
15833;SDS011;8017;50.812;4.934;2022-08-19T02:09:24;52.27;;;42.37;;
15833;SDS011;8017;50.812;4.934;2022-08-19T02:12:26;49.77;;;40.03;;
15833;SDS011;8017;50.812;4.934;2022-08-19T02:15:28;53.47;;;41.90;;
15833;SDS011;8017;50.812;4.934;2022-08-19T02:18:30;45.20;;;39.13;;
15833;SDS011;8017;50.812;4.934;2022-08-19T02:21:33;50.90;;;42.40;;
15833;SDS011;8017;50.812;4.934;2022-08-19T02:24:38;50.60;;;42.03;;
15833;SDS011;8017;50.812;4.934;2022-08-19T02:27:40;50.67;;;42.40;;
15833;SDS011;8017;50.812;4.934;2022-08-19T02:30:43;51.57;;;42.63;;
15833;SDS011;8017;50.812;4.934;2022-08-19T02:33:45;50.50;;;41.07;;
15833;SDS011;8017;50.812;4.934;2022-08-19T02:36:47;52.03;;;44.23;;
15833;SDS011;8017;50.812;4.934;2022-08-19T02:39:50;51.67;;;42.77;;
15833;SDS011;8017;50.812;4.934;2022-08-19T02:42:51;53.53;;;44.37;;
15833;SDS011;8017;50.812;4.934;2022-08-19T02:45:53;56.20;;;44.63;;
15833;SDS011;8017;50.812;4.934;2022-08-19T02:48:57;57.13;;;46.10;;
15833;SDS011;8017;50.812;4.934;2022-08-19T02:52:01;55.60;;;45.07;;
15833;SDS011;8017;50.812;4.934;2022-08-19T02:55:05;55.67;;;44.93;;
15833;SDS011;8017;50.812;4.934;2022-08-19T02:58:08;56.50;;;45.40;;
15833;SDS011;8017;50.812;4.934;2022-08-19T03:01:10;57.33;;;45.57;;
15833;SDS011;8017;50.812;4.934;2022-08-19T03:04:20;56.00;;;44.67;;
15833;SDS011;8017;50.812;4.934;2022-08-19T03:07:23;59.90;;;45.07;;
15833;SDS011;8017;50.812;4.934;2022-08-19T03:10:26;55.27;;;45.47;;
15833;SDS011;8017;50.812;4.934;2022-08-19T03:13:28;55.33;;;44.50;;
15833;SDS011;8017;50.812;4.934;2022-08-19T03:16:30;52.60;;;43.67;;
15833;SDS011;8017;50.812;4.934;2022-08-19T03:19:35;49.43;;;42.60;;
15833;SDS011;8017;50.812;4.934;2022-08-19T03:22:38;48.97;;;41.03;;
15833;SDS011;8017;50.812;4.934;2022-08-19T03:25:42;48.37;;;43.00;;
15833;SDS011;8017;50.812;4.934;2022-08-19T03:28:45;47.90;;;41.73;;
15833;SDS011;8017;50.812;4.934;2022-08-19T03:31:49;45.60;;;39.07;;
15833;SDS011;8017;50.812;4.934;2022-08-19T03:34:51;51.50;;;43.17;;
15833;SDS011;8017;50.812;4.934;2022-08-19T03:37:53;50.03;;;40.80;;
15833;SDS011;8017;50.812;4.934;2022-08-19T03:40:57;56.20;;;42.53;;
15833;SDS011;8017;50.812;4.934;2022-08-19T03:44:03;51.63;;;43.23;;
15833;SDS011;8017;50.812;4.934;2022-08-19T03:47:05;53.63;;;44.17;;
15833;SDS011;8017;50.812;4.934;2022-08-19T03:50:07;49.60;;;42.17;;
15833;SDS011;8017;50.812;4.934;2022-08-19T03:53:09;48.93;;;41.13;;
15833;SDS011;8017;50.812;4.934;2022-08-19T03:56:13;52.33;;;42.87;;
15833;SDS011;8017;50.812;4.934;2022-08-19T03:59:17;51.40;;;42.60;;
15833;SDS011;8017;50.812;4.934;2022-08-19T04:02:21;49.93;;;41.20;;
15833;SDS011;8017;50.812;4.934;2022-08-19T04:05:23;52.33;;;43.03;;
15833;SDS011;8017;50.812;4.934;2022-08-19T04:08:25;50.23;;;41.17;;
15833;SDS011;8017;50.812;4.934;2022-08-19T04:11:30;52.30;;;42.53;;
15833;SDS011;8017;50.812;4.934;2022-08-19T04:14:35;50.37;;;40.97;;
15833;SDS011;8017;50.812;4.934;2022-08-19T04:17:37;50.67;;;41.43;;
15833;SDS011;8017;50.812;4.934;2022-08-19T04:20:41;49.47;;;41.17;;
15833;SDS011;8017;50.812;4.934;2022-08-19T04:23:44;47.33;;;40.03;;
15833;SDS011;8017;50.812;4.934;2022-08-19T04:26:48;51.03;;;41.67;;
15833;SDS011;8017;50.812;4.934;2022-08-19T04:29:50;46.30;;;39.53;;
15833;SDS011;8017;50.812;4.934;2022-08-19T04:32:54;48.50;;;40.40;;
15833;SDS011;8017;50.812;4.934;2022-08-19T04:35:56;48.67;;;40.20;;
15833;SDS011;8017;50.812;4.934;2022-08-19T04:38:58;49.23;;;39.87;;
15833;SDS011;8017;50.812;4.934;2022-08-19T04:42:03;47.27;;;39.63;;
15833;SDS011;8017;50.812;4.934;2022-08-19T04:45:19;44.07;;;37.97;;
15833;SDS011;8017;50.812;4.934;2022-08-19T04:48:21;45.83;;;39.03;;
15833;SDS011;8017;50.812;4.934;2022-08-19T04:51:26;46.40;;;38.63;;
15833;SDS011;8017;50.812;4.934;2022-08-19T04:54:31;45.30;;;38.60;;
15833;SDS011;8017;50.812;4.934;2022-08-19T04:57:34;42.53;;;37.47;;
15833;SDS011;8017;50.812;4.934;2022-08-19T05:00:40;45.97;;;37.50;;
15833;SDS011;8017;50.812;4.934;2022-08-19T05:03:42;49.63;;;38.50;;
15833;SDS011;8017;50.812;4.934;2022-08-19T05:06:44;40.00;;;35.63;;
15833;SDS011;8017;50.812;4.934;2022-08-19T05:09:47;48.03;;;37.17;;
15833;SDS011;8017;50.812;4.934;2022-08-19T05:12:50;44.50;;;36.70;;
15833;SDS011;8017;50.812;4.934;2022-08-19T05:15:55;46.10;;;36.27;;
15833;SDS011;8017;50.812;4.934;2022-08-19T05:18:58;44.13;;;35.10;;
15833;SDS011;8017;50.812;4.934;2022-08-19T05:22:18;44.07;;;34.47;;
15833;SDS011;8017;50.812;4.934;2022-08-19T05:25:38;42.60;;;35.47;;
15833;SDS011;8017;50.812;4.934;2022-08-19T05:28:42;44.93;;;34.10;;
15833;SDS011;8017;50.812;4.934;2022-08-19T05:31:44;43.77;;;35.03;;
15833;SDS011;8017;50.812;4.934;2022-08-19T05:34:49;41.00;;;35.37;;
15833;SDS011;8017;50.812;4.934;2022-08-19T05:37:51;46.67;;;34.37;;
15833;SDS011;8017;50.812;4.934;2022-08-19T05:40:54;45.63;;;34.33;;
15833;SDS011;8017;50.812;4.934;2022-08-19T05:43:57;42.07;;;33.30;;
15833;SDS011;8017;50.812;4.934;2022-08-19T05:47:02;39.83;;;32.87;;
15833;SDS011;8017;50.812;4.934;2022-08-19T05:50:06;41.13;;;32.20;;
15833;SDS011;8017;50.812;4.934;2022-08-19T05:53:08;41.53;;;33.63;;
15833;SDS011;8017;50.812;4.934;2022-08-19T05:56:11;44.57;;;32.37;;
15833;SDS011;8017;50.812;4.934;2022-08-19T05:59:17;43.60;;;33.53;;
15833;SDS011;8017;50.812;4.934;2022-08-19T06:02:21;41.77;;;32.60;;
15833;SDS011;8017;50.812;4.934;2022-08-19T06:05:23;41.97;;;33.53;;
15833;SDS011;8017;50.812;4.934;2022-08-19T06:08:25;40.70;;;33.80;;
15833;SDS011;8017;50.812;4.934;2022-08-19T06:11:31;44.20;;;34.97;;
15833;SDS011;8017;50.812;4.934;2022-08-19T06:14:37;43.80;;;33.37;;
15833;SDS011;8017;50.812;4.934;2022-08-19T06:17:39;42.40;;;34.03;;
15833;SDS011;8017;50.812;4.934;2022-08-19T06:20:41;41.57;;;32.30;;
15833;SDS011;8017;50.812;4.934;2022-08-19T06:23:44;40.23;;;31.80;;
15833;SDS011;8017;50.812;4.934;2022-08-19T06:26:48;37.73;;;30.80;;
15833;SDS011;8017;50.812;4.934;2022-08-19T06:29:51;36.83;;;31.33;;
15833;SDS011;8017;50.812;4.934;2022-08-19T06:32:54;38.07;;;29.70;;
15833;SDS011;8017;50.812;4.934;2022-08-19T06:35:56;34.70;;;29.30;;
15833;SDS011;8017;50.812;4.934;2022-08-19T06:38:58;33.33;;;26.17;;
15833;SDS011;8017;50.812;4.934;2022-08-19T06:42:00;27.97;;;24.90;;
15833;SDS011;8017;50.812;4.934;2022-08-19T06:45:08;33.83;;;26.33;;
15833;SDS011;8017;50.812;4.934;2022-08-19T06:48:10;29.27;;;24.43;;
15833;SDS011;8017;50.812;4.934;2022-08-19T06:51:12;24.40;;;21.30;;
15833;SDS011;8017;50.812;4.934;2022-08-19T06:54:18;23.83;;;21.07;;
15833;SDS011;8017;50.812;4.934;2022-08-19T06:57:20;22.70;;;19.20;;
15833;SDS011;8017;50.812;4.934;2022-08-19T07:00:23;19.47;;;16.63;;
15833;SDS011;8017;50.812;4.934;2022-08-19T07:03:25;19.17;;;15.70;;
15833;SDS011;8017;50.812;4.934;2022-08-19T07:06:28;17.97;;;15.67;;
15833;SDS011;8017;50.812;4.934;2022-08-19T07:09:31;18.17;;;14.73;;
15833;SDS011;8017;50.812;4.934;2022-08-19T07:12:32;16.83;;;12.50;;
15833;SDS011;8017;50.812;4.934;2022-08-19T07:15:37;16.03;;;11.90;;
15833;SDS011;8017;50.812;4.934;2022-08-19T07:18:39;17.80;;;11.50;;
15833;SDS011;8017;50.812;4.934;2022-08-19T07:21:41;13.37;;;10.50;;
15833;SDS011;8017;50.812;4.934;2022-08-19T07:24:43;12.67;;;9.80;;
15833;SDS011;8017;50.812;4.934;2022-08-19T07:27:48;15.60;;;10.90;;
15833;SDS011;8017;50.812;4.934;2022-08-19T07:30:52;12.60;;;9.90;;
